Weather at Hyon-ni Airport

Public forecast

Using degrees Celsius for public forecast. Weather courtesy of forecast.io.

Closest aviation weather report (METAR) to Hyon-ni Airport

Closest report is Yangyang International Airport, 66.2 nm (122.6 km) ESE. Retrieved 2021/11/28 16:00 UTC (53 minutes ago):

RKNY 281600Z AUTO 25011KT 9999 NCD 11/M15 Q1027

Closest aviation forecast (TAF) to Hyon-ni Airport

Forecast is more than 6 hours old.

Closest forecast is Wonsan Kalma International Airport, 33.3 nm (61.6 km) N. Retrieved 2021/11/28 06:10 UTC (11 hours ago):

TAF ZKWS 280510Z 2806/2906 26003MPS CAVOK TX16/2806Z TN02/2822Z